ADDS METAR Data INFO
IDs: Format: Raw Decoded Include TAF

Data at: 2037 UTC 22 Feb 2018

KIND 221954Z 11015KT 10SM OVC014 07/04 A3039 RMK AO2 SLP295 T00670039
KIND 221939Z 10013G20KT 10SM OVC014 07/03 A3040 RMK AO2 T00670033
KIND 221854Z 08012KT 10SM OVC015 07/03 A3042 RMK AO2 SLP304 T00670033
KIND 221812Z 08013KT 10SM OVC015 06/03 A3041 RMK AO2 T00610028
KIND 221754Z 07013KT 10SM OVC014 06/03 A3042 RMK AO2 RAB1655E04 SLP307 P0000 60007 T00560028 10056 20028 56012
KIND 221654Z 07014G20KT 10SM BKN014 BKN045 05/03 A3043 RMK AO2 RAB38E52 SLP310 P0000 T00500028
KIND 221554Z 06014G20KT 10SM BKN011 BKN044 04/02 A3044 RMK AO2 SLP315 T00390017
KIND 221454Z 06017G22KT 10SM BKN010 BKN036 OVC044 03/02 A3046 RMK AO2 SLP320 60007 T00280017 51032
KIND 221449Z 05015KT 10SM BKN010 BKN036 OVC044 03/02 A3046 RMK AO2
KIND 221354Z 03015KT 9SM BKN008 OVC042 03/02 A3045 RMK AO2 RAE53 SLP318 P0004 T00280017
KIND 221334Z 03017KT 3SM -RA BR BKN006 BKN030 OVC044 03/02 A3044 RMK AO2 P0003 T00280017
KIND 221314Z 01015KT 2SM -RA BR SCT006 SCT014 OVC025 03/02 A3044 RMK AO2 P0003 T00280022
KIND 221254Z 35013KT 1 1/4SM RA BR BKN009 OVC014 03/02 A3045 RMK AO2 SLP316 RAB31 P0003 T00280022
KIND 221249Z 35011KT 1SM R05L/P6000FT RA BR BKN009 OVC014 03/02 A3045 RMK AO2 RAB31 P0002
KIND 221238Z COR 34011KT 1 1/4SM -RA BR OVC010 03/02 A3043 RMK AO2 RAB31 PRESRR P0000 T00330022
KIND 221154Z 05012KT 10SM OVC010 03/02 A3036 RMK AO2 RAE06 SLP287 P0000 60022 70050 T00330022 10039 20033 58001
KIND 221054Z 06011KT 10SM -RA SCT007 OVC011 03/02 A3037 RMK AO2 SLP292 P0001 T00330022
KIND 221052Z 06012KT 10SM -RA SCT007 OVC011 03/02 A3037 RMK AO2 P0001
KIND 220954Z 07013KT 10SM -RA OVC011 03/02 A3036 RMK AO2 SLP288 P0005 T00330022
KIND 220930Z 08016KT 10SM -RA BKN010 BKN022 OVC055 03/02 A3037 RMK AO2 P0003 T00330022
KIND 220922Z 07013G21KT 10SM -RA BKN009 BKN028 OVC050 03/02 A3037 RMK AO2 P0002 T00330022
KIND 220854Z 08016KT 8SM -RA FEW009 SCT026 OVC055 03/02 A3037 RMK AO2 SLP292 P0007 60016 T00330022 56021
KIND 220851Z 07014KT 8SM -RA FEW009 SCT026 OVC055 03/02 A3038 RMK AO2 P0006
KIND 220829Z 07011KT 7SM -RA SCT026 BKN055 OVC070 03/02 A3040 RMK AO2 P0004 T00330022
KIND 220754Z 08013KT 8SM -RA FEW010 BKN026 OVC065 03/02 A3042 RMK AO2 SLP308 P0005 T00330022
KIND 220739Z 07012KT 8SM -RA FEW010 BKN026 OVC065 03/02 A3042 RMK AO2 P0004 T00330022
KIND 220654Z 06013KT 6SM -RA BR BKN010 OVC042 04/03 A3044 RMK AO2 SLP314 P0004 T00390028
KIND 220638Z 05014G19KT 6SM -RA BR BKN010 OVC042 04/03 A3044 RMK AO2 P0003 T00390028
KIND 220554Z 06012KT 5SM -RA BR BKN009 OVC035 04/03 A3047 RMK AO2 SLP326 P0003 60013 T00390028 10039 20028 56011
KIND 220454Z 05010KT 5SM -RA BR BKN007 BKN026 OVC035 03/03 A3048 RMK AO2 SLP328 P0002 T00330028 402060028
KIND 220452Z 05010KT 5SM -RA BR BKN007 BKN026 OVC035 03/02 A3048 RMK AO2 P0002
KIND 220414Z 05011KT 5SM -RA BR SCT009 SCT027 OVC031 03/02 A3050 RMK AO2 P0000 T00280022
KIND 220400Z 04011KT 6SM -RA BR SCT011 SCT018 OVC032 03/02 A3050 RMK AO2 P0000 T00330017
KIND 220354Z 04014KT 7SM -RA BKN011 OVC030 03/02 A3051 RMK AO2 SLP337 P0002 T00280017
KIND 220043Z 05010KT 7SM -RA FEW048 OVC070 03/02 A3049 RMK AO2 P0002 T00280017
KIND 212354Z 04011KT 10SM -RA BKN014 OVC030 03/01 A3050 RMK AO2 RAB26 SLP334 P0000 60000 T00280011 10033 20028 51014
KIND 212320Z 02010KT 10SM BKN014 OVC030 03/01 A3051 RMK AO2 T00280011
KIND 212254Z 03010KT 10SM SCT012 BKN030 OVC060 03/01 A3049 RMK AO2 RAE16 SLP331 P0000 T00280011
KIND 212230Z 03010KT 10SM SCT012 OVC045 03/02 A3049 RMK AO2 RAE16 P0000 T00280017
KIND 212154Z 03009KT 4SM -RA BR BKN012 OVC033 03/01 A3048 RMK AO2 RAB03E21B43 SLP326 P0000 T00280011
KIND 212054Z 02015KT 10SM BKN016 OVC025 03/01 A3046 RMK AO2 RAE43 SLP318 P0000 60000 T00330011 50003
KIND 211954Z 01010KT 10SM -RA OVC014 03/01 A3046 RMK AO2 SLP320 P0000 T00330011
KIND 211854Z 01010KT 10SM -RA FEW009 OVC012 03/01 A3047 RMK AO2 SLP320 P0000 T00330011
KIND 211817Z 02012KT 10SM -RA FEW009 OVC012 03/02 A3045 RMK AO2 P0000 T00330017
KIND 211754Z 36011KT 10SM -RA BKN009 OVC012 03/02 A3045 RMK AO2 SLP312 P0002 60015 T00330017 10050 20028 50011
KIND 211654Z 01007KT 10SM -RA BKN008 OVC045 03/02 A3046 RMK AO2 SLP316 P0002 T00330022
KIND 211643Z 01007KT 9SM -RA BKN008 OVC045 03/02 A3045 RMK AO2 P0002 T00330017
KIND 211605Z 01007KT 10SM -RA FEW008 OVC010 03/02 A3045 RMK AO2 P0000 T00280017
KIND 211554Z 36008KT 10SM -RA OVC009 03/02 A3043 RMK AO2 SLP306 P0003 T00280017
KIND 211454Z 01008KT 10SM -RA BKN009 OVC012 03/02 A3042 RMK AO2 SLP301 P0002 60008 T00330017 53039
KIND 211354Z 01011KT 10SM -RA BKN009 BKN012 OVC023 03/02 A3038 RMK AO2 SLP287 P0003 T00330022
KIND 211344Z 36010KT 9SM -RA BKN009 BKN012 OVC023 03/02 A3038 RMK AO2 P0002 T00330017
KIND 211254Z 35011KT 9SM -RA SCT009 OVC013 04/03 A3032 RMK AO2 SLP268 P0003 T00390028
KIND 211232Z 33012KT 9SM -RA SCT008 OVC013 04/03 A3032 RMK AO2 P0002 T00440028